createdAt,value
2019-05-06T00:01:24.730Z,11.08
2019-05-06T00:03:54.303Z,6.90
2019-05-06T00:06:23.812Z,5.87
2019-05-06T00:08:55.867Z,9.55
2019-05-06T00:11:25.181Z,10.95
2019-05-06T00:13:54.904Z,14.87
2019-05-06T00:16:24.278Z,10.70
2019-05-06T00:18:54.252Z,7.75
2019-05-06T00:21:24.376Z,14.03
2019-05-06T00:23:54.660Z,7.22
2019-05-06T00:26:56.737Z,5.90
2019-05-06T00:29:26.511Z,11.75
2019-05-06T00:31:55.849Z,13.30
2019-05-06T00:34:25.193Z,18.12
2019-05-06T00:36:54.755Z,13.68
2019-05-06T00:39:44.379Z,5.33
2019-05-06T00:42:34.609Z,10.72
2019-05-06T00:45:04.817Z,10.38
2019-05-06T00:47:34.374Z,6.67
2019-05-06T00:50:04.353Z,8.60
2019-05-06T00:52:34.042Z,11.05
2019-05-06T00:55:04.112Z,10.48
2019-05-06T00:57:45.837Z,8.83
2019-05-06T01:00:20.538Z,8.78
2019-05-06T01:02:49.943Z,11.33
2019-05-06T01:05:19.285Z,19.80
2019-05-06T01:07:48.682Z,9.88
2019-05-06T01:10:18.265Z,6.78
2019-05-06T01:12:57.206Z,12.73
2019-05-06T01:15:28.035Z,10.25
2019-05-06T01:17:57.341Z,11.75
2019-05-06T01:20:26.716Z,5.35
2019-05-06T01:22:56.106Z,13.18
2019-05-06T01:25:25.451Z,6.83
2019-05-06T01:27:54.794Z,7.87
2019-05-06T01:30:24.709Z,8.35
2019-05-06T01:32:54.476Z,10.65
2019-05-06T01:35:24.514Z,6.80
2019-05-06T01:38:11.769Z,12.93
2019-05-06T01:40:59.191Z,11.80
2019-05-06T01:43:30.781Z,6.92
2019-05-06T01:46:00.132Z,15.53
2019-05-06T01:48:47.721Z,10.13
2019-05-06T01:51:18.218Z,14.03
2019-05-06T01:53:47.611Z,10.60
2019-05-06T01:56:17.015Z,11.15
2019-05-06T01:58:46.384Z,18.92
2019-05-06T02:01:15.895Z,13.08
2019-05-06T02:03:45.250Z,8.93
2019-05-06T02:06:14.609Z,15.80
2019-05-06T02:08:44.857Z,10.10
2019-05-06T02:11:14.900Z,8.48
2019-05-06T02:13:44.547Z,10.43
2019-05-06T02:16:14.770Z,11.28
2019-05-06T02:18:44.942Z,8.38
2019-05-06T02:21:20.319Z,8.43
2019-05-06T02:23:57.913Z,6.58
2019-05-06T02:26:27.325Z,9.93
2019-05-06T02:28:58.303Z,10.78
2019-05-06T02:31:46.151Z,12.75
2019-05-06T02:34:21.450Z,16.97
2019-05-06T02:37:07.270Z,15.23
2019-05-06T02:39:36.632Z,14.58
2019-05-06T02:42:07.970Z,18.82
2019-05-06T02:44:37.335Z,9.40
2019-05-06T02:47:14.339Z,12.33
2019-05-06T02:49:53.265Z,19.80
2019-05-06T02:52:22.949Z,9.60
2019-05-06T02:54:53.678Z,10.98
2019-05-06T02:57:23.975Z,12.60
2019-05-06T02:59:55.472Z,16.93
2019-05-06T03:02:37.927Z,13.32
2019-05-06T03:04:55.510Z,9.28
2019-05-06T03:07:24.857Z,21.87
2019-05-06T03:09:54.204Z,14.50
2019-05-06T03:12:23.599Z,12.37
2019-05-06T03:14:53.455Z,14.20
2019-05-06T03:17:23.650Z,10.90
2019-05-06T03:19:54.790Z,14.35
2019-05-06T03:22:43.234Z,15.38
2019-05-06T03:25:15.870Z,15.83
2019-05-06T03:27:46.989Z,11.40
2019-05-06T03:30:17.368Z,10.58
2019-05-06T03:33:21.315Z,17.62
2019-05-06T03:35:33.571Z,12.07
2019-05-06T03:37:48.818Z,13.58
2019-05-06T03:40:18.216Z,8.53
2019-05-06T03:42:47.584Z,12.13
2019-05-06T03:45:36.794Z,17.23
2019-05-06T03:48:13.906Z,13.78
2019-05-06T03:50:44.050Z,18.67
2019-05-06T03:53:14.089Z,10.53
2019-05-06T03:55:47.171Z,14.23
2019-05-06T03:58:16.864Z,12.55
2019-05-06T04:00:46.599Z,14.38
2019-05-06T04:03:16.010Z,12.40
2019-05-06T04:05:46.174Z,13.43
2019-05-06T04:08:15.613Z,14.45
2019-05-06T04:10:45.569Z,11.18
2019-05-06T04:13:14.899Z,11.38
2019-05-06T04:16:16.469Z,12.35
2019-05-06T04:18:53.886Z,9.70
2019-05-06T04:21:32.937Z,9.95
2019-05-06T04:24:24.403Z,9.58
2019-05-06T04:27:07.099Z,11.53
2019-05-06T04:29:36.461Z,13.62
2019-05-06T04:32:06.659Z,8.88
2019-05-06T04:34:36.659Z,15.58
2019-05-06T04:37:06.141Z,9.48
2019-05-06T04:39:35.553Z,15.08
2019-05-06T04:42:08.937Z,15.28
2019-05-06T04:44:35.881Z,16.62
2019-05-06T04:47:05.604Z,14.25
2019-05-06T04:49:35.191Z,14.07
2019-05-06T04:52:04.982Z,15.55
2019-05-06T04:54:34.319Z,10.65
2019-05-06T04:57:05.062Z,11.88
2019-05-06T04:59:35.038Z,9.98
2019-05-06T05:02:04.405Z,7.28
2019-05-06T05:04:36.884Z,11.60
2019-05-06T05:07:05.213Z,11.50
2019-05-06T05:09:34.586Z,12.10
2019-05-06T05:12:15.881Z,12.40
2019-05-06T05:14:52.720Z,15.55
2019-05-06T05:17:39.685Z,11.73
2019-05-06T05:20:09.464Z,9.68
2019-05-06T05:22:39.354Z,10.63
2019-05-06T05:25:08.915Z,13.15
2019-05-06T05:27:38.388Z,16.23
2019-05-06T05:30:08.051Z,13.25
2019-05-06T05:32:37.476Z,15.05
2019-05-06T05:35:06.973Z,12.25
2019-05-06T05:37:36.351Z,13.78
2019-05-06T05:40:05.903Z,11.33
2019-05-06T05:42:49.529Z,14.45
2019-05-06T05:45:18.904Z,12.37
2019-05-06T05:47:49.101Z,17.05
2019-05-06T05:50:25.703Z,14.40
2019-05-06T05:52:55.215Z,13.25
2019-05-06T05:55:25.097Z,10.00
2019-05-06T05:57:54.459Z,11.30
2019-05-06T06:00:25.408Z,12.63
2019-05-06T06:02:54.759Z,9.68
2019-05-06T06:05:24.145Z,16.80
2019-05-06T06:07:53.484Z,15.00
2019-05-06T06:10:28.523Z,12.73
2019-05-06T06:12:57.881Z,12.40
2019-05-06T06:15:44.320Z,13.93
2019-05-06T06:18:22.416Z,9.40
2019-05-06T06:21:17.764Z,14.33
2019-05-06T06:23:38.414Z,9.25
2019-05-06T06:26:08.529Z,19.75
2019-05-06T06:28:37.861Z,16.60
2019-05-06T06:31:19.026Z,8.88
2019-05-06T06:33:49.803Z,17.73
2019-05-06T06:36:28.638Z,6.78
2019-05-06T06:39:07.603Z,10.23
2019-05-06T06:41:37.002Z,9.15
2019-05-06T06:44:09.965Z,13.15
2019-05-06T06:46:39.295Z,12.30
2019-05-06T06:49:08.779Z,8.70
2019-05-06T06:51:38.110Z,9.93
2019-05-06T06:54:07.523Z,16.87
2019-05-06T06:57:08.490Z,7.35
2019-05-06T06:59:40.018Z,12.58
2019-05-06T07:02:28.167Z,10.95
2019-05-06T07:05:03.916Z,10.10
2019-05-06T07:07:43.394Z,7.78
2019-05-06T07:10:05.356Z,8.13
2019-05-06T07:12:34.746Z,10.75
2019-05-06T07:15:04.320Z,11.38
2019-05-06T07:17:33.714Z,6.37
2019-05-06T07:20:06.915Z,12.37
2019-05-06T07:22:39.387Z,8.95
2019-05-06T07:25:09.709Z,14.30
2019-05-06T07:27:39.081Z,13.40
2019-05-06T07:30:08.991Z,7.75
2019-05-06T07:32:38.336Z,11.57
2019-05-06T07:35:07.777Z,6.05
2019-05-06T07:37:37.180Z,7.92
2019-05-06T07:40:07.359Z,4.80
2019-05-06T07:42:44.368Z,9.05
2019-05-06T07:45:48.044Z,10.80
2019-05-06T07:48:17.437Z,9.40
2019-05-06T07:50:49.176Z,9.05
2019-05-06T07:53:17.805Z,9.25
2019-05-06T07:55:47.225Z,6.75
2019-05-06T07:58:16.603Z,9.55
2019-05-06T08:00:46.027Z,7.95
2019-05-06T08:03:15.378Z,5.97
2019-05-06T08:05:55.111Z,13.03
2019-05-06T08:08:16.655Z,8.73
2019-05-06T08:10:46.175Z,5.45
2019-05-06T08:13:15.492Z,8.60
2019-05-06T08:15:44.844Z,5.40
2019-05-06T08:18:14.233Z,6.55
2019-05-06T08:20:43.689Z,5.62
2019-05-06T08:23:32.409Z,4.80
2019-05-06T08:26:10.001Z,4.22
2019-05-06T08:28:40.943Z,5.70
2019-05-06T08:31:03.453Z,4.92
2019-05-06T08:33:32.948Z,7.85
2019-05-06T08:36:11.685Z,6.37
2019-05-06T08:38:57.059Z,13.10
2019-05-06T08:41:26.594Z,5.25
2019-05-06T08:43:56.327Z,6.62
2019-05-06T08:46:25.730Z,11.95
2019-05-06T08:48:55.088Z,4.35
2019-05-06T08:51:34.906Z,10.35
2019-05-06T08:54:08.666Z,5.28
2019-05-06T08:56:38.350Z,6.30
2019-05-06T08:59:07.991Z,5.10
2019-05-06T09:01:45.659Z,4.35
2019-05-06T09:04:16.336Z,7.37
2019-05-06T09:06:45.993Z,6.30
2019-05-06T09:09:15.326Z,3.55
2019-05-06T09:11:44.709Z,4.12
2019-05-06T09:14:14.387Z,7.47
2019-05-06T09:16:44.292Z,8.00
2019-05-06T09:19:14.053Z,6.37
2019-05-06T09:21:46.297Z,10.35
2019-05-06T09:24:14.773Z,5.65
2019-05-06T09:26:48.089Z,6.08
2019-05-06T09:29:23.224Z,5.22
2019-05-06T09:31:53.958Z,9.50
2019-05-06T09:34:37.955Z,3.90
2019-05-06T09:37:14.324Z,6.33
2019-05-06T09:39:45.099Z,8.38
2019-05-06T09:42:14.952Z,4.75
2019-05-06T09:44:45.291Z,8.00
2019-05-06T09:47:23.928Z,4.50
2019-05-06T09:49:53.357Z,7.75
2019-05-06T09:52:23.289Z,3.95
2019-05-06T09:55:08.991Z,3.60
2019-05-06T09:57:55.997Z,4.08
2019-05-06T10:00:25.509Z,6.85
2019-05-06T10:02:54.888Z,5.53
2019-05-06T10:05:24.242Z,7.25
2019-05-06T10:07:53.709Z,4.85
2019-05-06T10:10:23.062Z,2.70
2019-05-06T10:12:53.101Z,2.25
2019-05-06T10:15:23.013Z,3.58
2019-05-06T10:18:07.929Z,5.15
2019-05-06T10:20:43.081Z,5.00
2019-05-06T10:23:13.014Z,4.00
2019-05-06T10:25:43.803Z,6.83
2019-05-06T10:28:25.805Z,3.00
2019-05-06T10:30:55.153Z,5.47
2019-05-06T10:33:26.064Z,3.85
2019-05-06T10:35:57.339Z,5.05
2019-05-06T10:38:48.446Z,10.15
2019-05-06T10:41:22.376Z,11.15
2019-05-06T10:44:23.291Z,5.72
2019-05-06T10:46:52.898Z,5.85
2019-05-06T10:49:22.856Z,6.10
2019-05-06T10:52:04.817Z,5.17
2019-05-06T10:54:34.172Z,10.68
2019-05-06T10:57:32.828Z,3.45
2019-05-06T11:00:02.493Z,7.28
2019-05-06T11:02:47.412Z,3.05
2019-05-06T11:05:16.760Z,3.47
2019-05-06T11:07:46.098Z,3.87
2019-05-06T11:10:24.353Z,3.47
2019-05-06T11:12:46.755Z,3.42
2019-05-06T11:15:16.104Z,3.00
2019-05-06T11:17:45.519Z,3.33
2019-05-06T11:20:14.861Z,2.85
2019-05-06T11:22:44.268Z,5.15
2019-05-06T11:25:14.592Z,9.40
2019-05-06T11:27:45.209Z,4.65
2019-05-06T11:30:24.846Z,4.87
2019-05-06T11:33:04.754Z,4.05
2019-05-06T11:35:52.742Z,6.40
2019-05-06T11:38:22.754Z,5.87
2019-05-06T11:40:52.978Z,4.40
2019-05-06T11:43:22.897Z,3.75
2019-05-06T11:45:52.377Z,4.75
2019-05-06T11:48:22.312Z,7.28
2019-05-06T11:50:53.708Z,6.08
2019-05-06T11:53:23.303Z,5.83
2019-05-06T11:55:54.923Z,4.85
2019-05-06T11:58:43.357Z,5.15
2019-05-06T12:01:18.346Z,4.03
2019-05-06T12:03:47.714Z,6.65
2019-05-06T12:06:17.085Z,4.47
2019-05-06T12:08:46.464Z,5.35
2019-05-06T12:11:15.832Z,5.60
2019-05-06T12:13:45.293Z,5.53
2019-05-06T12:16:14.647Z,4.47
2019-05-06T12:18:44.037Z,2.90
2019-05-06T12:21:18.874Z,8.10
2019-05-06T12:23:45.114Z,3.30
2019-05-06T12:26:14.648Z,3.50
2019-05-06T12:28:43.937Z,3.72
2019-05-06T12:31:13.355Z,6.20
2019-05-06T12:33:53.057Z,7.75
2019-05-06T12:36:22.366Z,5.22
2019-05-06T12:39:09.943Z,4.90
2019-05-06T12:42:13.530Z,5.83
2019-05-06T12:44:52.952Z,4.12
2019-05-06T12:47:32.937Z,3.25
2019-05-06T12:50:02.912Z,5.22
2019-05-06T12:52:32.417Z,8.40
2019-05-06T12:55:17.000Z,7.45
2019-05-06T12:57:34.525Z,3.70
2019-05-06T13:00:04.718Z,5.55
2019-05-06T13:02:34.105Z,3.42
2019-05-06T13:05:04.170Z,3.95
2019-05-06T13:07:41.947Z,4.05
2019-05-06T13:10:12.955Z,4.72
2019-05-06T13:12:43.745Z,3.83
2019-05-06T13:15:13.588Z,7.45
2019-05-06T13:17:43.014Z,7.22
2019-05-06T13:20:14.642Z,7.10
2019-05-06T13:22:56.018Z,4.95
2019-05-06T13:25:29.348Z,4.70
2019-05-06T13:27:58.670Z,8.70
2019-05-06T13:30:28.005Z,5.40
2019-05-06T13:33:04.059Z,4.00
2019-05-06T13:35:33.700Z,6.62
2019-05-06T13:38:03.064Z,6.10
2019-05-06T13:40:35.016Z,9.03
2019-05-06T13:43:23.497Z,5.65
2019-05-06T13:45:53.829Z,5.70
2019-05-06T13:48:32.522Z,6.28
2019-05-06T13:51:05.535Z,6.22
2019-05-06T13:53:39.537Z,2.65
2019-05-06T13:56:06.398Z,5.25
2019-05-06T13:58:35.773Z,5.70
2019-05-06T14:01:08.032Z,6.45
2019-05-06T14:03:38.018Z,5.22
2019-05-06T14:06:07.366Z,4.55
2019-05-06T14:08:36.753Z,6.70
2019-05-06T14:11:06.103Z,4.37
2019-05-06T14:13:35.472Z,2.77
2019-05-06T14:16:04.880Z,5.58
2019-05-06T14:18:37.529Z,5.70
2019-05-06T14:21:05.304Z,3.47
2019-05-06T14:23:34.656Z,4.03
2019-05-06T14:26:22.850Z,5.87
2019-05-06T14:28:57.451Z,4.97
2019-05-06T14:31:29.338Z,8.18
2019-05-06T14:33:59.410Z,5.42
2019-05-06T14:36:29.626Z,5.30
2019-05-06T14:38:58.977Z,6.53
2019-05-06T14:41:29.069Z,7.53
2019-05-06T14:43:58.411Z,6.20
2019-05-06T14:46:33.151Z,5.83
2019-05-06T14:49:04.284Z,4.17
2019-05-06T14:51:33.736Z,6.83
2019-05-06T14:54:03.153Z,5.22
2019-05-06T14:56:39.237Z,5.00
2019-05-06T14:59:08.904Z,6.10
2019-05-06T15:01:39.586Z,4.42
2019-05-06T15:04:08.963Z,8.05
2019-05-06T15:06:38.409Z,8.90
2019-05-06T15:09:13.333Z,7.58
2019-05-06T15:11:43.476Z,8.10
2019-05-06T15:14:13.257Z,6.05
2019-05-06T15:16:42.676Z,7.87
2019-05-06T15:19:12.854Z,11.15
2019-05-06T15:21:42.886Z,8.65
2019-05-06T15:24:13.836Z,6.60
2019-05-06T15:26:43.421Z,5.55
2019-05-06T15:29:13.352Z,5.97
2019-05-06T15:32:02.617Z,4.67
2019-05-06T15:34:39.628Z,7.60
2019-05-06T15:37:16.008Z,7.83
2019-05-06T15:39:45.561Z,11.43
2019-05-06T15:42:15.053Z,5.12
2019-05-06T15:44:44.610Z,6.95
2019-05-06T15:47:14.111Z,5.05
2019-05-06T15:49:43.942Z,4.17
2019-05-06T15:52:13.713Z,3.90
2019-05-06T15:54:43.808Z,5.55
2019-05-06T15:57:13.102Z,4.15
2019-05-06T15:59:44.483Z,5.28
2019-05-06T16:02:13.965Z,3.70
2019-05-06T16:04:43.331Z,6.80
2019-05-06T16:07:13.366Z,5.72
2019-05-06T16:09:43.203Z,6.55
2019-05-06T16:12:12.968Z,4.45
2019-05-06T16:14:42.676Z,5.08
2019-05-06T16:17:12.357Z,5.12
2019-05-06T16:19:42.992Z,7.00
2019-05-06T16:22:12.364Z,6.55
2019-05-06T16:24:46.661Z,3.77
2019-05-06T16:27:16.089Z,5.75
2019-05-06T16:29:45.424Z,7.95
2019-05-06T16:32:15.242Z,9.18
2019-05-06T16:34:45.520Z,9.30
2019-05-06T16:37:14.852Z,6.78
2019-05-06T16:39:44.232Z,11.63
2019-05-06T16:42:13.628Z,4.80
2019-05-06T16:44:45.207Z,5.03
2019-05-06T16:47:33.050Z,7.72
2019-05-06T16:50:02.377Z,5.42
2019-05-06T16:52:33.357Z,14.33
2019-05-06T16:55:03.251Z,6.17
2019-05-06T16:57:33.355Z,4.25
2019-05-06T17:00:03.059Z,4.72
2019-05-06T17:02:55.919Z,5.83
2019-05-06T17:05:33.653Z,11.55
2019-05-06T17:08:03.074Z,4.15
2019-05-06T17:10:32.774Z,4.72
2019-05-06T17:13:02.937Z,8.28
2019-05-06T17:15:32.858Z,3.00
2019-05-06T17:18:03.089Z,6.85
2019-05-06T17:20:32.934Z,3.12
2019-05-06T17:23:03.048Z,9.00
2019-05-06T17:25:33.678Z,5.50
2019-05-06T17:28:17.548Z,4.58
2019-05-06T17:31:05.678Z,4.75
2019-05-06T17:33:37.009Z,5.22
2019-05-06T17:36:07.373Z,5.90
2019-05-06T17:38:43.832Z,3.20
2019-05-06T17:41:13.199Z,4.62
2019-05-06T17:43:44.144Z,4.65
2019-05-06T17:46:15.184Z,4.62
2019-05-06T17:48:52.850Z,4.42
2019-05-06T17:51:30.434Z,4.35
2019-05-06T17:54:00.391Z,5.80
2019-05-06T17:56:29.912Z,6.90
2019-05-06T17:58:59.273Z,4.50
2019-05-06T18:01:38.088Z,5.58
2019-05-06T18:04:07.465Z,5.75
2019-05-06T18:06:36.832Z,4.03
2019-05-06T18:09:08.425Z,6.17
2019-05-06T18:11:37.861Z,5.33
2019-05-06T18:14:07.229Z,4.45
2019-05-06T18:16:36.614Z,7.25
2019-05-06T18:19:05.985Z,4.87
2019-05-06T18:21:35.365Z,7.20
2019-05-06T18:24:04.966Z,5.20
2019-05-06T18:26:34.305Z,3.83
2019-05-06T18:29:03.733Z,2.42
2019-05-06T18:31:33.638Z,3.37
2019-05-06T18:34:06.273Z,4.17
2019-05-06T18:36:34.160Z,3.02
2019-05-06T18:39:05.021Z,3.58
2019-05-06T18:41:34.518Z,2.50
2019-05-06T18:44:03.886Z,4.92
2019-05-06T18:46:33.954Z,2.80
2019-05-06T18:49:03.265Z,3.92
2019-05-06T18:51:32.613Z,3.40
2019-05-06T18:54:03.044Z,2.15
2019-05-06T18:56:32.801Z,2.92
2019-05-06T18:59:02.884Z,2.85
2019-05-06T19:01:33.287Z,2.20
2019-05-06T19:04:09.681Z,1.90
2019-05-06T19:06:39.053Z,2.45
2019-05-06T19:09:22.810Z,2.15
2019-05-06T19:11:54.501Z,2.65
2019-05-06T19:14:23.368Z,2.65
2019-05-06T19:16:55.144Z,4.03
2019-05-06T19:19:23.709Z,3.98
2019-05-06T19:21:53.077Z,2.95
2019-05-06T19:24:22.755Z,3.08
2019-05-06T19:26:52.730Z,2.67
2019-05-06T19:29:23.255Z,2.75
2019-05-06T19:31:52.665Z,5.20
2019-05-06T19:34:23.578Z,2.47
2019-05-06T19:36:53.198Z,3.55
2019-05-06T19:39:23.134Z,2.30
2019-05-06T19:41:52.600Z,3.45
2019-05-06T19:44:22.179Z,3.42
2019-05-06T19:46:53.286Z,2.58
2019-05-06T19:49:23.901Z,6.40
2019-05-06T19:51:53.316Z,6.92
2019-05-06T19:54:22.745Z,3.25
2019-05-06T19:56:52.619Z,3.05
2019-05-06T19:59:22.261Z,2.65
2019-05-06T20:01:52.497Z,3.92
2019-05-06T20:04:22.816Z,3.65
2019-05-06T20:07:06.846Z,3.58
2019-05-06T20:09:55.149Z,3.25
2019-05-06T20:12:37.354Z,5.17
2019-05-06T20:15:25.233Z,3.00
2019-05-06T20:17:54.684Z,3.65
2019-05-06T20:20:24.336Z,3.10
2019-05-06T20:22:53.843Z,3.35
2019-05-06T20:25:23.536Z,3.47
2019-05-06T20:27:53.088Z,3.65
2019-05-06T20:30:22.826Z,3.72
2019-05-06T20:32:52.473Z,2.90
2019-05-06T20:35:22.495Z,2.58
2019-05-06T20:37:53.378Z,4.90
2019-05-06T20:40:23.274Z,2.95
2019-05-06T20:42:52.662Z,3.42
2019-05-06T20:45:22.360Z,5.10
2019-05-06T20:47:52.530Z,3.45
2019-05-06T20:50:22.716Z,4.25
2019-05-06T20:52:52.219Z,3.10
2019-05-06T20:55:22.934Z,4.92
2019-05-06T20:57:53.050Z,5.72
2019-05-06T21:00:22.609Z,4.67
2019-05-06T21:02:53.428Z,4.80
2019-05-06T21:05:24.022Z,5.87
2019-05-06T21:07:53.355Z,5.35
2019-05-06T21:10:22.755Z,3.58
2019-05-06T21:12:53.243Z,4.15
2019-05-06T21:15:23.111Z,3.25
2019-05-06T21:17:52.564Z,7.62
2019-05-06T21:20:22.011Z,4.05
2019-05-06T21:22:52.770Z,3.02
2019-05-06T21:25:22.755Z,5.03
2019-05-06T21:27:53.217Z,3.33
2019-05-06T21:30:22.706Z,5.35
2019-05-06T21:32:52.196Z,3.95
2019-05-06T21:35:22.228Z,3.80
2019-05-06T21:37:52.974Z,6.28
2019-05-06T21:40:22.403Z,4.12
2019-05-06T21:42:51.738Z,5.53
2019-05-06T21:45:22.166Z,4.72
2019-05-06T21:47:53.047Z,3.90
2019-05-06T21:50:22.878Z,3.72
2019-05-06T21:52:52.247Z,5.92
2019-05-06T21:55:22.728Z,4.20
2019-05-06T21:57:52.938Z,3.35
2019-05-06T22:00:27.314Z,11.28
2019-05-06T22:02:57.148Z,5.47
2019-05-06T22:05:26.504Z,3.17
2019-05-06T22:07:55.843Z,8.25
2019-05-06T22:10:25.303Z,4.33
2019-05-06T22:12:54.712Z,7.92
2019-05-06T22:15:24.100Z,3.27
2019-05-06T22:17:54.507Z,4.22
2019-05-06T22:20:23.928Z,3.98
2019-05-06T22:22:53.315Z,4.70
2019-05-06T22:25:22.652Z,5.85
2019-05-06T22:27:52.102Z,4.20
2019-05-06T22:30:23.723Z,5.35
2019-05-06T22:32:52.799Z,4.40
2019-05-06T22:35:23.060Z,3.92
2019-05-06T22:37:53.093Z,6.15
2019-05-06T22:40:23.803Z,6.08
2019-05-06T22:42:53.389Z,7.47
2019-05-06T22:45:22.941Z,9.20
2019-05-06T22:47:54.016Z,6.75
2019-05-06T22:50:25.127Z,4.62
2019-05-06T22:52:54.618Z,7.37
2019-05-06T22:55:24.119Z,4.97
2019-05-06T22:57:53.698Z,5.17
2019-05-06T23:00:25.753Z,5.70
2019-05-06T23:03:02.135Z,4.97
2019-05-06T23:05:32.555Z,7.50
2019-05-06T23:08:02.864Z,5.08
2019-05-06T23:10:33.654Z,3.85
2019-05-06T23:13:03.230Z,4.85
2019-05-06T23:15:34.179Z,5.20
2019-05-06T23:18:03.698Z,6.80
2019-05-06T23:20:33.033Z,5.60
2019-05-06T23:23:04.526Z,5.05
2019-05-06T23:25:33.402Z,5.17
2019-05-06T23:28:02.911Z,5.53
2019-05-06T23:30:33.447Z,4.03
2019-05-06T23:33:02.903Z,3.52
2019-05-06T23:35:32.290Z,9.50
2019-05-06T23:38:37.161Z,6.10
2019-05-06T23:41:42.362Z,6.10
2019-05-06T23:44:46.955Z,7.47
2019-05-06T23:47:53.145Z,5.75
2019-05-06T23:50:58.213Z,6.37
2019-05-06T23:54:03.372Z,4.70
2019-05-06T23:56:43.408Z,4.85
2019-05-06T23:59:13.564Z,14.98
